sensor_id;sensor_type;location;lat;lon;timestamp;temperature;humidity
8979;DHT22;4524;51.364;5.448;2023-03-16T00:01:33;6.00;99.90
8979;DHT22;4524;51.364;5.448;2023-03-16T00:04:03;6.00;99.90
8979;DHT22;4524;51.364;5.448;2023-03-16T00:06:31;6.00;99.90
8979;DHT22;4524;51.364;5.448;2023-03-16T00:08:59;6.00;99.90
8979;DHT22;4524;51.364;5.448;2023-03-16T00:11:27;6.10;99.90
8979;DHT22;4524;51.364;5.448;2023-03-16T00:13:55;6.10;99.90
8979;DHT22;4524;51.364;5.448;2023-03-16T00:16:24;6.10;99.90
8979;DHT22;4524;51.364;5.448;2023-03-16T00:18:52;6.10;99.90
8979;DHT22;4524;51.364;5.448;2023-03-16T00:21:21;6.10;99.90
8979;DHT22;4524;51.364;5.448;2023-03-16T00:23:49;6.10;99.90
8979;DHT22;4524;51.364;5.448;2023-03-16T00:26:19;6.10;99.90
8979;DHT22;4524;51.364;5.448;2023-03-16T00:28:48;6.10;99.90
8979;DHT22;4524;51.364;5.448;2023-03-16T00:31:19;6.10;99.90
8979;DHT22;4524;51.364;5.448;2023-03-16T00:33:50;6.20;99.90
8979;DHT22;4524;51.364;5.448;2023-03-16T00:36:21;6.20;99.90
8979;DHT22;4524;51.364;5.448;2023-03-16T00:38:48;6.20;99.90
8979;DHT22;4524;51.364;5.448;2023-03-16T00:41:16;6.20;99.90
8979;DHT22;4524;51.364;5.448;2023-03-16T00:43:45;6.20;99.90
8979;DHT22;4524;51.364;5.448;2023-03-16T00:46:15;6.20;99.90
8979;DHT22;4524;51.364;5.448;2023-03-16T00:48:45;6.20;99.90
8979;DHT22;4524;51.364;5.448;2023-03-16T00:51:15;6.20;99.90
8979;DHT22;4524;51.364;5.448;2023-03-16T00:53:46;6.20;99.90
8979;DHT22;4524;51.364;5.448;2023-03-16T00:56:15;6.20;99.90
8979;DHT22;4524;51.364;5.448;2023-03-16T00:58:43;6.20;99.90
8979;DHT22;4524;51.364;5.448;2023-03-16T01:01:13;6.30;99.90
8979;DHT22;4524;51.364;5.448;2023-03-16T01:03:42;6.30;99.90
8979;DHT22;4524;51.364;5.448;2023-03-16T01:06:11;6.30;99.90
8979;DHT22;4524;51.364;5.448;2023-03-16T01:08:41;6.30;99.90
8979;DHT22;4524;51.364;5.448;2023-03-16T01:11:13;6.20;99.90
8979;DHT22;4524;51.364;5.448;2023-03-16T01:13:43;6.30;99.90
8979;DHT22;4524;51.364;5.448;2023-03-16T01:16:13;6.30;99.90
8979;DHT22;4524;51.364;5.448;2023-03-16T01:18:41;6.30;99.90
8979;DHT22;4524;51.364;5.448;2023-03-16T01:21:11;6.30;99.90
8979;DHT22;4524;51.364;5.448;2023-03-16T01:23:39;6.30;99.90
8979;DHT22;4524;51.364;5.448;2023-03-16T01:26:12;6.30;99.90
8979;DHT22;4524;51.364;5.448;2023-03-16T01:28:43;6.30;99.90
8979;DHT22;4524;51.364;5.448;2023-03-16T01:31:13;6.30;99.90
8979;DHT22;4524;51.364;5.448;2023-03-16T01:33:42;6.30;99.90
8979;DHT22;4524;51.364;5.448;2023-03-16T01:36:15;6.40;99.90
8979;DHT22;4524;51.364;5.448;2023-03-16T01:38:50;6.40;99.90
8979;DHT22;4524;51.364;5.448;2023-03-16T01:41:19;6.40;99.90
8979;DHT22;4524;51.364;5.448;2023-03-16T01:43:47;6.40;99.90
8979;DHT22;4524;51.364;5.448;2023-03-16T01:46:20;6.40;99.90
8979;DHT22;4524;51.364;5.448;2023-03-16T01:48:55;6.30;99.90
8979;DHT22;4524;51.364;5.448;2023-03-16T01:51:30;6.30;99.90
8979;DHT22;4524;51.364;5.448;2023-03-16T01:54:02;6.40;99.90
8979;DHT22;4524;51.364;5.448;2023-03-16T01:56:35;6.40;99.90
8979;DHT22;4524;51.364;5.448;2023-03-16T01:59:08;6.40;99.90
8979;DHT22;4524;51.364;5.448;2023-03-16T02:01:37;6.50;99.90
8979;DHT22;4524;51.364;5.448;2023-03-16T02:04:16;6.50;99.90
8979;DHT22;4524;51.364;5.448;2023-03-16T02:06:46;6.50;99.90
8979;DHT22;4524;51.364;5.448;2023-03-16T02:09:15;6.50;99.90
8979;DHT22;4524;51.364;5.448;2023-03-16T02:11:45;6.50;99.90
8979;DHT22;4524;51.364;5.448;2023-03-16T02:14:14;6.60;99.90
8979;DHT22;4524;51.364;5.448;2023-03-16T02:16:42;6.50;99.90
8979;DHT22;4524;51.364;5.448;2023-03-16T02:19:14;6.50;99.90
8979;DHT22;4524;51.364;5.448;2023-03-16T02:21:51;6.50;99.90
8979;DHT22;4524;51.364;5.448;2023-03-16T02:24:22;6.50;99.90
8979;DHT22;4524;51.364;5.448;2023-03-16T02:27:12;6.50;99.90
8979;DHT22;4524;51.364;5.448;2023-03-16T02:29:59;6.50;99.90
8979;DHT22;4524;51.364;5.448;2023-03-16T02:32:38;6.50;99.90
8979;DHT22;4524;51.364;5.448;2023-03-16T02:35:09;6.50;99.90
8979;DHT22;4524;51.364;5.448;2023-03-16T02:37:39;6.50;99.90
8979;DHT22;4524;51.364;5.448;2023-03-16T02:40:20;6.50;99.90
8979;DHT22;4524;51.364;5.448;2023-03-16T02:42:55;6.50;99.90
8979;DHT22;4524;51.364;5.448;2023-03-16T02:45:34;6.50;99.90
8979;DHT22;4524;51.364;5.448;2023-03-16T02:48:08;6.50;99.90
8979;DHT22;4524;51.364;5.448;2023-03-16T02:50:44;6.50;99.90
8979;DHT22;4524;51.364;5.448;2023-03-16T02:53:14;6.50;99.90
8979;DHT22;4524;51.364;5.448;2023-03-16T02:55:43;6.40;99.90
8979;DHT22;4524;51.364;5.448;2023-03-16T02:58:12;6.40;99.90
8979;DHT22;4524;51.364;5.448;2023-03-16T03:00:42;6.40;99.90
8979;DHT22;4524;51.364;5.448;2023-03-16T03:03:13;6.40;99.90
8979;DHT22;4524;51.364;5.448;2023-03-16T03:05:41;6.40;99.90
8979;DHT22;4524;51.364;5.448;2023-03-16T03:08:09;6.40;99.90
8979;DHT22;4524;51.364;5.448;2023-03-16T03:10:37;6.40;99.90
8979;DHT22;4524;51.364;5.448;2023-03-16T03:13:06;6.40;99.90
8979;DHT22;4524;51.364;5.448;2023-03-16T03:15:34;6.40;99.90
8979;DHT22;4524;51.364;5.448;2023-03-16T03:18:08;6.40;99.90
8979;DHT22;4524;51.364;5.448;2023-03-16T03:20:36;6.30;99.90
8979;DHT22;4524;51.364;5.448;2023-03-16T03:23:04;6.30;99.90
8979;DHT22;4524;51.364;5.448;2023-03-16T03:25:32;6.30;99.90
8979;DHT22;4524;51.364;5.448;2023-03-16T03:28:02;6.30;99.90
8979;DHT22;4524;51.364;5.448;2023-03-16T03:30:31;6.30;99.90
8979;DHT22;4524;51.364;5.448;2023-03-16T03:33:00;6.30;99.90
8979;DHT22;4524;51.364;5.448;2023-03-16T03:35:30;6.30;99.90
8979;DHT22;4524;51.364;5.448;2023-03-16T03:37:58;6.40;99.90
8979;DHT22;4524;51.364;5.448;2023-03-16T03:40:26;6.30;99.90
8979;DHT22;4524;51.364;5.448;2023-03-16T03:42:58;6.40;99.90
8979;DHT22;4524;51.364;5.448;2023-03-16T03:45:26;6.40;99.90
8979;DHT22;4524;51.364;5.448;2023-03-16T03:47:55;6.40;99.90
8979;DHT22;4524;51.364;5.448;2023-03-16T03:50:23;6.40;99.90
8979;DHT22;4524;51.364;5.448;2023-03-16T03:53:06;6.40;99.90
8979;DHT22;4524;51.364;5.448;2023-03-16T03:55:45;6.50;99.90
8979;DHT22;4524;51.364;5.448;2023-03-16T03:58:15;6.40;99.90
8979;DHT22;4524;51.364;5.448;2023-03-16T04:00:43;6.50;99.90
8979;DHT22;4524;51.364;5.448;2023-03-16T04:03:11;6.50;99.90
8979;DHT22;4524;51.364;5.448;2023-03-16T04:05:43;6.50;99.90
8979;DHT22;4524;51.364;5.448;2023-03-16T04:08:13;6.50;99.90
8979;DHT22;4524;51.364;5.448;2023-03-16T04:10:41;6.50;99.90
8979;DHT22;4524;51.364;5.448;2023-03-16T04:13:09;6.50;99.90
8979;DHT22;4524;51.364;5.448;2023-03-16T04:15:37;6.50;99.90
8979;DHT22;4524;51.364;5.448;2023-03-16T04:18:25;6.50;99.90
8979;DHT22;4524;51.364;5.448;2023-03-16T04:20:53;6.40;99.90
8979;DHT22;4524;51.364;5.448;2023-03-16T04:23:24;6.50;99.90
8979;DHT22;4524;51.364;5.448;2023-03-16T04:25:53;6.50;99.90
8979;DHT22;4524;51.364;5.448;2023-03-16T04:28:22;6.50;99.90
8979;DHT22;4524;51.364;5.448;2023-03-16T04:30:52;6.50;99.90
8979;DHT22;4524;51.364;5.448;2023-03-16T04:33:26;6.50;99.90
8979;DHT22;4524;51.364;5.448;2023-03-16T04:35:55;6.50;99.90
8979;DHT22;4524;51.364;5.448;2023-03-16T04:38:25;6.50;99.90
8979;DHT22;4524;51.364;5.448;2023-03-16T04:40:56;6.50;99.90
8979;DHT22;4524;51.364;5.448;2023-03-16T04:43:30;6.60;99.90
8979;DHT22;4524;51.364;5.448;2023-03-16T04:46:05;6.60;99.90
8979;DHT22;4524;51.364;5.448;2023-03-16T04:48:34;6.60;99.90
8979;DHT22;4524;51.364;5.448;2023-03-16T04:51:04;6.60;99.90
8979;DHT22;4524;51.364;5.448;2023-03-16T04:53:38;6.60;99.90
8979;DHT22;4524;51.364;5.448;2023-03-16T04:56:14;6.60;99.90
8979;DHT22;4524;51.364;5.448;2023-03-16T04:58:51;6.60;99.90
8979;DHT22;4524;51.364;5.448;2023-03-16T05:01:22;6.50;99.90
8979;DHT22;4524;51.364;5.448;2023-03-16T05:03:54;6.50;99.90
8979;DHT22;4524;51.364;5.448;2023-03-16T05:06:25;6.60;99.90
8979;DHT22;4524;51.364;5.448;2023-03-16T05:08:55;6.60;99.90
8979;DHT22;4524;51.364;5.448;2023-03-16T05:11:23;6.60;99.90
8979;DHT22;4524;51.364;5.448;2023-03-16T05:13:55;6.60;99.90
8979;DHT22;4524;51.364;5.448;2023-03-16T05:16:25;6.60;99.90
8979;DHT22;4524;51.364;5.448;2023-03-16T05:18:56;6.60;99.90
8979;DHT22;4524;51.364;5.448;2023-03-16T05:21:26;6.60;99.90
8979;DHT22;4524;51.364;5.448;2023-03-16T05:24:03;6.60;99.90
8979;DHT22;4524;51.364;5.448;2023-03-16T05:26:31;6.60;99.90
8979;DHT22;4524;51.364;5.448;2023-03-16T05:28:59;6.60;99.90
8979;DHT22;4524;51.364;5.448;2023-03-16T05:31:29;6.60;99.90
8979;DHT22;4524;51.364;5.448;2023-03-16T05:34:00;6.60;99.90
8979;DHT22;4524;51.364;5.448;2023-03-16T05:36:29;6.60;99.90
8979;DHT22;4524;51.364;5.448;2023-03-16T05:39:05;6.70;99.90
8979;DHT22;4524;51.364;5.448;2023-03-16T05:41:37;6.60;99.90
8979;DHT22;4524;51.364;5.448;2023-03-16T05:44:16;6.70;99.90
8979;DHT22;4524;51.364;5.448;2023-03-16T05:47:17;6.70;99.90
8979;DHT22;4524;51.364;5.448;2023-03-16T05:49:50;6.70;99.90
8979;DHT22;4524;51.364;5.448;2023-03-16T05:52:27;6.70;99.90
8979;DHT22;4524;51.364;5.448;2023-03-16T05:54:58;6.70;99.90
8979;DHT22;4524;51.364;5.448;2023-03-16T05:57:26;6.70;99.90
8979;DHT22;4524;51.364;5.448;2023-03-16T05:59:55;6.70;99.90
8979;DHT22;4524;51.364;5.448;2023-03-16T06:02:23;6.70;99.90
8979;DHT22;4524;51.364;5.448;2023-03-16T06:04:53;6.70;99.90
8979;DHT22;4524;51.364;5.448;2023-03-16T06:07:22;6.80;99.90
8979;DHT22;4524;51.364;5.448;2023-03-16T06:09:52;6.70;99.90
8979;DHT22;4524;51.364;5.448;2023-03-16T06:12:22;6.80;99.90
8979;DHT22;4524;51.364;5.448;2023-03-16T06:14:50;6.80;99.90
8979;DHT22;4524;51.364;5.448;2023-03-16T06:17:18;6.80;99.90
8979;DHT22;4524;51.364;5.448;2023-03-16T06:19:47;6.80;99.90
8979;DHT22;4524;51.364;5.448;2023-03-16T06:22:16;6.90;99.90
8979;DHT22;4524;51.364;5.448;2023-03-16T06:24:45;6.90;99.90
8979;DHT22;4524;51.364;5.448;2023-03-16T06:27:14;6.90;99.90
8979;DHT22;4524;51.364;5.448;2023-03-16T06:29:58;6.90;99.90
8979;DHT22;4524;51.364;5.448;2023-03-16T06:32:26;6.90;99.90
8979;DHT22;4524;51.364;5.448;2023-03-16T06:34:54;6.90;99.90
8979;DHT22;4524;51.364;5.448;2023-03-16T06:37:25;6.90;99.90
8979;DHT22;4524;51.364;5.448;2023-03-16T06:39:53;6.90;99.90
8979;DHT22;4524;51.364;5.448;2023-03-16T06:42:21;7.00;99.90
8979;DHT22;4524;51.364;5.448;2023-03-16T06:44:49;7.00;99.90
8979;DHT22;4524;51.364;5.448;2023-03-16T06:47:19;7.00;99.90
8979;DHT22;4524;51.364;5.448;2023-03-16T06:49:48;7.10;99.90
8979;DHT22;4524;51.364;5.448;2023-03-16T06:52:20;7.00;99.90
8979;DHT22;4524;51.364;5.448;2023-03-16T06:54:48;7.10;99.90
8979;DHT22;4524;51.364;5.448;2023-03-16T06:57:18;7.00;99.90
8979;DHT22;4524;51.364;5.448;2023-03-16T06:59:46;7.00;99.90
8979;DHT22;4524;51.364;5.448;2023-03-16T07:02:14;7.10;99.90
8979;DHT22;4524;51.364;5.448;2023-03-16T07:04:44;7.10;99.90
8979;DHT22;4524;51.364;5.448;2023-03-16T07:07:13;7.10;99.90
8979;DHT22;4524;51.364;5.448;2023-03-16T07:09:40;7.10;99.90
8979;DHT22;4524;51.364;5.448;2023-03-16T07:12:09;7.20;99.90
8979;DHT22;4524;51.364;5.448;2023-03-16T07:14:37;7.20;99.90
8979;DHT22;4524;51.364;5.448;2023-03-16T07:17:08;7.30;99.90
8979;DHT22;4524;51.364;5.448;2023-03-16T07:19:36;7.30;99.90
8979;DHT22;4524;51.364;5.448;2023-03-16T07:22:05;7.30;99.90
8979;DHT22;4524;51.364;5.448;2023-03-16T07:24:37;7.40;99.90
8979;DHT22;4524;51.364;5.448;2023-03-16T07:27:05;7.40;99.90
8979;DHT22;4524;51.364;5.448;2023-03-16T07:29:33;7.40;99.90
8979;DHT22;4524;51.364;5.448;2023-03-16T07:32:03;7.40;99.90
8979;DHT22;4524;51.364;5.448;2023-03-16T07:34:36;7.50;99.90
8979;DHT22;4524;51.364;5.448;2023-03-16T07:37:05;7.50;99.90
8979;DHT22;4524;51.364;5.448;2023-03-16T07:39:34;7.50;99.90
8979;DHT22;4524;51.364;5.448;2023-03-16T07:42:07;7.60;99.90
8979;DHT22;4524;51.364;5.448;2023-03-16T07:44:45;7.60;99.90
8979;DHT22;4524;51.364;5.448;2023-03-16T07:47:30;7.70;99.90
8979;DHT22;4524;51.364;5.448;2023-03-16T07:50:06;7.70;99.90
8979;DHT22;4524;51.364;5.448;2023-03-16T07:52:36;7.60;99.90
8979;DHT22;4524;51.364;5.448;2023-03-16T07:55:05;7.70;99.90
8979;DHT22;4524;51.364;5.448;2023-03-16T07:57:33;7.90;99.90
8979;DHT22;4524;51.364;5.448;2023-03-16T08:00:02;8.00;99.90
8979;DHT22;4524;51.364;5.448;2023-03-16T08:02:38;8.00;99.90
8979;DHT22;4524;51.364;5.448;2023-03-16T08:05:09;8.20;99.90
8979;DHT22;4524;51.364;5.448;2023-03-16T08:07:43;8.30;99.90
8979;DHT22;4524;51.364;5.448;2023-03-16T08:10:16;8.30;99.90
8979;DHT22;4524;51.364;5.448;2023-03-16T08:12:50;8.20;99.90
8979;DHT22;4524;51.364;5.448;2023-03-16T08:15:18;8.30;99.90
8979;DHT22;4524;51.364;5.448;2023-03-16T08:17:48;8.40;99.90
8979;DHT22;4524;51.364;5.448;2023-03-16T08:20:21;8.40;99.90
8979;DHT22;4524;51.364;5.448;2023-03-16T08:22:53;8.50;99.90
8979;DHT22;4524;51.364;5.448;2023-03-16T08:25:30;8.60;99.90
8979;DHT22;4524;51.364;5.448;2023-03-16T08:28:05;8.70;99.90
8979;DHT22;4524;51.364;5.448;2023-03-16T08:30:34;8.70;99.90
8979;DHT22;4524;51.364;5.448;2023-03-16T08:33:16;8.90;99.90
8979;DHT22;4524;51.364;5.448;2023-03-16T08:35:50;9.10;99.90
8979;DHT22;4524;51.364;5.448;2023-03-16T08:38:19;9.10;99.90
8979;DHT22;4524;51.364;5.448;2023-03-16T08:40:50;9.20;99.90
8979;DHT22;4524;51.364;5.448;2023-03-16T08:43:20;9.20;99.90
8979;DHT22;4524;51.364;5.448;2023-03-16T08:45:50;9.10;99.90
8979;DHT22;4524;51.364;5.448;2023-03-16T08:48:21;9.20;99.90
8979;DHT22;4524;51.364;5.448;2023-03-16T08:50:50;9.10;99.90
8979;DHT22;4524;51.364;5.448;2023-03-16T08:53:20;9.10;99.90
8979;DHT22;4524;51.364;5.448;2023-03-16T08:55:48;9.10;99.90
8979;DHT22;4524;51.364;5.448;2023-03-16T08:58:17;9.10;99.90
8979;DHT22;4524;51.364;5.448;2023-03-16T09:00:45;9.10;99.90
8979;DHT22;4524;51.364;5.448;2023-03-16T09:03:16;9.20;99.90
8979;DHT22;4524;51.364;5.448;2023-03-16T09:05:44;9.30;99.90
8979;DHT22;4524;51.364;5.448;2023-03-16T09:08:12;9.40;99.90
8979;DHT22;4524;51.364;5.448;2023-03-16T09:10:41;9.50;99.90
8979;DHT22;4524;51.364;5.448;2023-03-16T09:13:10;9.60;99.90
8979;DHT22;4524;51.364;5.448;2023-03-16T09:15:38;9.80;99.90
8979;DHT22;4524;51.364;5.448;2023-03-16T09:18:06;9.80;99.90
8979;DHT22;4524;51.364;5.448;2023-03-16T09:20:34;10.00;99.90
8979;DHT22;4524;51.364;5.448;2023-03-16T09:23:03;10.00;99.90
8979;DHT22;4524;51.364;5.448;2023-03-16T09:25:31;10.10;99.90
8979;DHT22;4524;51.364;5.448;2023-03-16T09:28:00;10.30;99.90
8979;DHT22;4524;51.364;5.448;2023-03-16T09:30:28;10.70;99.90
8979;DHT22;4524;51.364;5.448;2023-03-16T09:32:57;10.90;99.90
8979;DHT22;4524;51.364;5.448;2023-03-16T09:35:25;11.00;99.90
8979;DHT22;4524;51.364;5.448;2023-03-16T09:37:53;11.00;99.90
8979;DHT22;4524;51.364;5.448;2023-03-16T09:40:33;11.00;99.90
8979;DHT22;4524;51.364;5.448;2023-03-16T09:43:15;10.80;99.90
8979;DHT22;4524;51.364;5.448;2023-03-16T09:45:54;10.90;99.90
8979;DHT22;4524;51.364;5.448;2023-03-16T09:48:27;10.90;99.90
8979;DHT22;4524;51.364;5.448;2023-03-16T09:50:57;10.90;99.90
8979;DHT22;4524;51.364;5.448;2023-03-16T09:53:28;11.00;99.90
8979;DHT22;4524;51.364;5.448;2023-03-16T09:56:01;11.10;99.90
8979;DHT22;4524;51.364;5.448;2023-03-16T09:58:31;11.40;99.90
8979;DHT22;4524;51.364;5.448;2023-03-16T10:01:06;11.50;99.90
8979;DHT22;4524;51.364;5.448;2023-03-16T10:03:52;11.50;99.90
8979;DHT22;4524;51.364;5.448;2023-03-16T10:06:25;11.50;99.90
8979;DHT22;4524;51.364;5.448;2023-03-16T10:09:03;11.70;99.90
8979;DHT22;4524;51.364;5.448;2023-03-16T10:11:35;11.80;99.90
8979;DHT22;4524;51.364;5.448;2023-03-16T10:14:11;11.90;99.90
8979;DHT22;4524;51.364;5.448;2023-03-16T10:16:46;12.00;99.90
8979;DHT22;4524;51.364;5.448;2023-03-16T10:19:19;11.90;99.90
8979;DHT22;4524;51.364;5.448;2023-03-16T10:21:52;11.90;99.90
8979;DHT22;4524;51.364;5.448;2023-03-16T10:24:31;11.80;99.90
8979;DHT22;4524;51.364;5.448;2023-03-16T10:27:05;11.90;99.90
8979;DHT22;4524;51.364;5.448;2023-03-16T10:29:36;12.00;99.90
8979;DHT22;4524;51.364;5.448;2023-03-16T10:32:11;12.20;99.90
8979;DHT22;4524;51.364;5.448;2023-03-16T10:34:40;12.30;99.90
8979;DHT22;4524;51.364;5.448;2023-03-16T10:37:12;12.30;99.90
8979;DHT22;4524;51.364;5.448;2023-03-16T10:39:40;12.40;99.90
8979;DHT22;4524;51.364;5.448;2023-03-16T10:42:14;12.50;99.90
8979;DHT22;4524;51.364;5.448;2023-03-16T10:44:44;12.60;99.90
8979;DHT22;4524;51.364;5.448;2023-03-16T10:47:18;12.50;99.90
8979;DHT22;4524;51.364;5.448;2023-03-16T10:49:46;12.70;99.90
8979;DHT22;4524;51.364;5.448;2023-03-16T10:52:18;12.60;99.90
8979;DHT22;4524;51.364;5.448;2023-03-16T10:54:52;12.50;99.90
8979;DHT22;4524;51.364;5.448;2023-03-16T10:57:26;12.50;99.90
8979;DHT22;4524;51.364;5.448;2023-03-16T11:00:04;12.60;99.90
8979;DHT22;4524;51.364;5.448;2023-03-16T11:02:42;12.70;99.90
8979;DHT22;4524;51.364;5.448;2023-03-16T11:05:12;12.90;99.90
8979;DHT22;4524;51.364;5.448;2023-03-16T11:07:47;13.10;99.90
8979;DHT22;4524;51.364;5.448;2023-03-16T11:10:28;13.50;99.90
8979;DHT22;4524;51.364;5.448;2023-03-16T11:13:05;13.50;99.90
8979;DHT22;4524;51.364;5.448;2023-03-16T11:15:43;13.40;99.90
8979;DHT22;4524;51.364;5.448;2023-03-16T11:18:21;13.70;99.90
8979;DHT22;4524;51.364;5.448;2023-03-16T11:20:53;13.80;99.90
8979;DHT22;4524;51.364;5.448;2023-03-16T11:23:28;13.90;99.90
8979;DHT22;4524;51.364;5.448;2023-03-16T11:25:59;13.90;99.90
8979;DHT22;4524;51.364;5.448;2023-03-16T11:28:34;13.90;99.90
8979;DHT22;4524;51.364;5.448;2023-03-16T11:31:19;14.00;99.90
8979;DHT22;4524;51.364;5.448;2023-03-16T11:33:51;14.10;99.90
8979;DHT22;4524;51.364;5.448;2023-03-16T11:36:34;14.10;99.90
8979;DHT22;4524;51.364;5.448;2023-03-16T11:39:09;14.20;99.90
8979;DHT22;4524;51.364;5.448;2023-03-16T11:41:51;14.10;99.90
8979;DHT22;4524;51.364;5.448;2023-03-16T11:44:27;14.10;99.90
8979;DHT22;4524;51.364;5.448;2023-03-16T11:47:05;14.20;99.90
8979;DHT22;4524;51.364;5.448;2023-03-16T11:49:47;14.30;99.90
8979;DHT22;4524;51.364;5.448;2023-03-16T11:52:26;14.30;99.90
8979;DHT22;4524;51.364;5.448;2023-03-16T11:55:03;14.30;99.90
8979;DHT22;4524;51.364;5.448;2023-03-16T11:57:44;14.30;99.90
8979;DHT22;4524;51.364;5.448;2023-03-16T12:00:29;14.30;99.90
8979;DHT22;4524;51.364;5.448;2023-03-16T12:03:28;14.30;99.90
8979;DHT22;4524;51.364;5.448;2023-03-16T12:06:02;14.30;99.90
8979;DHT22;4524;51.364;5.448;2023-03-16T12:09:26;14.30;99.90
8979;DHT22;4524;51.364;5.448;2023-03-16T12:12:03;14.30;99.90
8979;DHT22;4524;51.364;5.448;2023-03-16T12:14:38;14.30;99.90
8979;DHT22;4524;51.364;5.448;2023-03-16T12:17:11;14.30;99.90
8979;DHT22;4524;51.364;5.448;2023-03-16T12:19:46;14.30;99.90
8979;DHT22;4524;51.364;5.448;2023-03-16T12:22:18;14.30;99.90
8979;DHT22;4524;51.364;5.448;2023-03-16T12:24:48;14.20;99.90
8979;DHT22;4524;51.364;5.448;2023-03-16T12:27:20;14.20;99.90
8979;DHT22;4524;51.364;5.448;2023-03-16T12:29:57;14.10;99.90
8979;DHT22;4524;51.364;5.448;2023-03-16T12:32:37;14.00;99.90
8979;DHT22;4524;51.364;5.448;2023-03-16T12:35:19;14.10;99.90
8979;DHT22;4524;51.364;5.448;2023-03-16T12:37:57;14.10;99.90
8979;DHT22;4524;51.364;5.448;2023-03-16T12:40:33;14.20;99.90
8979;DHT22;4524;51.364;5.448;2023-03-16T12:43:15;14.20;99.90
8979;DHT22;4524;51.364;5.448;2023-03-16T12:45:51;14.20;99.90
8979;DHT22;4524;51.364;5.448;2023-03-16T12:48:25;14.10;99.90
8979;DHT22;4524;51.364;5.448;2023-03-16T12:50:58;14.20;99.90
8979;DHT22;4524;51.364;5.448;2023-03-16T12:53:37;14.20;99.90
8979;DHT22;4524;51.364;5.448;2023-03-16T12:56:07;14.20;99.90
8979;DHT22;4524;51.364;5.448;2023-03-16T12:58:38;14.20;99.90
8979;DHT22;4524;51.364;5.448;2023-03-16T13:01:10;14.10;99.90
8979;DHT22;4524;51.364;5.448;2023-03-16T13:03:38;14.20;99.90
8979;DHT22;4524;51.364;5.448;2023-03-16T13:06:16;14.30;99.90
8979;DHT22;4524;51.364;5.448;2023-03-16T13:08:47;14.20;99.90
8979;DHT22;4524;51.364;5.448;2023-03-16T13:11:17;14.20;99.90
8979;DHT22;4524;51.364;5.448;2023-03-16T13:13:51;14.20;99.90
8979;DHT22;4524;51.364;5.448;2023-03-16T13:16:25;14.20;99.90
8979;DHT22;4524;51.364;5.448;2023-03-16T13:18:54;14.30;99.90
8979;DHT22;4524;51.364;5.448;2023-03-16T13:21:35;14.30;99.90
8979;DHT22;4524;51.364;5.448;2023-03-16T13:24:24;14.40;99.90
8979;DHT22;4524;51.364;5.448;2023-03-16T13:26:59;14.30;99.90
8979;DHT22;4524;51.364;5.448;2023-03-16T13:29:31;14.30;99.90
8979;DHT22;4524;51.364;5.448;2023-03-16T13:32:01;14.40;99.90
8979;DHT22;4524;51.364;5.448;2023-03-16T13:34:44;14.40;99.90
8979;DHT22;4524;51.364;5.448;2023-03-16T13:37:17;14.40;99.90
8979;DHT22;4524;51.364;5.448;2023-03-16T13:39:51;14.30;99.90
8979;DHT22;4524;51.364;5.448;2023-03-16T13:42:22;14.20;99.90
8979;DHT22;4524;51.364;5.448;2023-03-16T13:44:52;14.10;99.90
8979;DHT22;4524;51.364;5.448;2023-03-16T13:47:21;14.10;99.90
8979;DHT22;4524;51.364;5.448;2023-03-16T13:49:53;14.10;99.90
8979;DHT22;4524;51.364;5.448;2023-03-16T13:52:25;14.10;99.90
8979;DHT22;4524;51.364;5.448;2023-03-16T13:54:53;14.10;99.90
8979;DHT22;4524;51.364;5.448;2023-03-16T13:57:25;14.10;99.90
8979;DHT22;4524;51.364;5.448;2023-03-16T14:00:00;14.20;99.90
8979;DHT22;4524;51.364;5.448;2023-03-16T14:02:39;14.10;99.90
8979;DHT22;4524;51.364;5.448;2023-03-16T14:05:09;14.10;99.90
8979;DHT22;4524;51.364;5.448;2023-03-16T14:07:39;14.10;99.90
8979;DHT22;4524;51.364;5.448;2023-03-16T14:10:11;14.10;99.90
8979;DHT22;4524;51.364;5.448;2023-03-16T14:12:50;14.10;99.90
8979;DHT22;4524;51.364;5.448;2023-03-16T14:15:19;14.10;99.90
8979;DHT22;4524;51.364;5.448;2023-03-16T14:17:47;14.20;99.90
8979;DHT22;4524;51.364;5.448;2023-03-16T14:20:18;14.10;99.90
8979;DHT22;4524;51.364;5.448;2023-03-16T14:22:50;14.10;99.90
8979;DHT22;4524;51.364;5.448;2023-03-16T14:25:21;14.10;99.90
8979;DHT22;4524;51.364;5.448;2023-03-16T14:27:57;14.20;99.90
8979;DHT22;4524;51.364;5.448;2023-03-16T14:30:27;14.20;99.90
8979;DHT22;4524;51.364;5.448;2023-03-16T14:32:58;14.20;99.90
8979;DHT22;4524;51.364;5.448;2023-03-16T14:35:28;14.10;99.90
8979;DHT22;4524;51.364;5.448;2023-03-16T14:38:17;14.20;99.90
8979;DHT22;4524;51.364;5.448;2023-03-16T14:40:51;14.20;99.90
8979;DHT22;4524;51.364;5.448;2023-03-16T14:43:24;14.20;99.90
8979;DHT22;4524;51.364;5.448;2023-03-16T14:45:54;14.20;99.90
8979;DHT22;4524;51.364;5.448;2023-03-16T14:48:23;14.20;99.90
8979;DHT22;4524;51.364;5.448;2023-03-16T14:50:53;14.30;99.90
8979;DHT22;4524;51.364;5.448;2023-03-16T14:53:24;14.30;99.90
8979;DHT22;4524;51.364;5.448;2023-03-16T14:55:54;14.20;99.90
8979;DHT22;4524;51.364;5.448;2023-03-16T14:58:23;14.20;99.90
8979;DHT22;4524;51.364;5.448;2023-03-16T15:00:51;14.20;99.90
8979;DHT22;4524;51.364;5.448;2023-03-16T15:03:22;14.20;99.90
8979;DHT22;4524;51.364;5.448;2023-03-16T15:05:55;14.20;99.90
8979;DHT22;4524;51.364;5.448;2023-03-16T15:08:27;14.20;99.90
8979;DHT22;4524;51.364;5.448;2023-03-16T15:10:59;14.20;99.90
8979;DHT22;4524;51.364;5.448;2023-03-16T15:13:28;14.10;99.90
8979;DHT22;4524;51.364;5.448;2023-03-16T15:16:19;14.20;99.90
8979;DHT22;4524;51.364;5.448;2023-03-16T15:18:48;14.10;99.90
8979;DHT22;4524;51.364;5.448;2023-03-16T15:21:19;14.20;99.90
8979;DHT22;4524;51.364;5.448;2023-03-16T15:23:50;14.30;99.90
8979;DHT22;4524;51.364;5.448;2023-03-16T15:26:21;14.20;99.90
8979;DHT22;4524;51.364;5.448;2023-03-16T15:28:52;14.20;99.90
8979;DHT22;4524;51.364;5.448;2023-03-16T15:31:20;14.30;99.90
8979;DHT22;4524;51.364;5.448;2023-03-16T15:33:48;14.30;99.90
8979;DHT22;4524;51.364;5.448;2023-03-16T15:36:17;14.30;99.90
8979;DHT22;4524;51.364;5.448;2023-03-16T15:38:48;14.30;99.90
8979;DHT22;4524;51.364;5.448;2023-03-16T15:41:18;14.30;99.90
8979;DHT22;4524;51.364;5.448;2023-03-16T15:43:46;14.30;99.90
8979;DHT22;4524;51.364;5.448;2023-03-16T15:46:14;14.20;99.90
8979;DHT22;4524;51.364;5.448;2023-03-16T15:48:43;14.20;99.90
8979;DHT22;4524;51.364;5.448;2023-03-16T15:51:16;14.20;99.90
8979;DHT22;4524;51.364;5.448;2023-03-16T15:53:49;14.20;99.90
8979;DHT22;4524;51.364;5.448;2023-03-16T15:56:22;14.20;99.90
8979;DHT22;4524;51.364;5.448;2023-03-16T15:58:56;14.20;99.90
8979;DHT22;4524;51.364;5.448;2023-03-16T16:01:28;14.20;99.90
8979;DHT22;4524;51.364;5.448;2023-03-16T16:04:00;14.20;99.90
8979;DHT22;4524;51.364;5.448;2023-03-16T16:06:29;14.20;99.90
8979;DHT22;4524;51.364;5.448;2023-03-16T16:08:57;14.30;99.90
8979;DHT22;4524;51.364;5.448;2023-03-16T16:11:27;14.20;99.90
8979;DHT22;4524;51.364;5.448;2023-03-16T16:13:56;14.20;99.90
8979;DHT22;4524;51.364;5.448;2023-03-16T16:16:26;14.20;99.90
8979;DHT22;4524;51.364;5.448;2023-03-16T16:18:55;14.20;99.90
8979;DHT22;4524;51.364;5.448;2023-03-16T16:21:25;14.10;99.90
8979;DHT22;4524;51.364;5.448;2023-03-16T16:23:54;14.00;99.90
8979;DHT22;4524;51.364;5.448;2023-03-16T16:26:29;14.00;99.90
8979;DHT22;4524;51.364;5.448;2023-03-16T16:29:17;14.00;99.90
8979;DHT22;4524;51.364;5.448;2023-03-16T16:31:47;14.00;99.90
8979;DHT22;4524;51.364;5.448;2023-03-16T16:34:18;14.10;99.90
8979;DHT22;4524;51.364;5.448;2023-03-16T16:36:48;14.10;99.90
8979;DHT22;4524;51.364;5.448;2023-03-16T16:39:16;14.10;99.90
8979;DHT22;4524;51.364;5.448;2023-03-16T16:41:45;14.20;99.90